Time;durP1;ratioP1;P1;durP2;ratioP2;P2;SDS_P1;SDS_P2;PMS_P1;PMS_P2;Temp;Humidity;BMP_temperature;BMP_pressure;BME280_temperature;BME280_humidity;BME280_pressure;Samples;Min_cycle;Max_cycle;Signal;HPM_P1;HPM_P2
2022/09/25 00:00:45;;;;;;;7.95;2.05;;;9.30;99.90;;;;;;4903124;29;20052;-76
2022/09/25 00:03:12;;;;;;;6.40;1.90;;;9.20;99.90;;;;;;4905011;29;20075;-77
2022/09/25 00:05:41;;;;;;;4.97;2.22;;;10.70;99.90;;;;;;4906008;28;20048;-84
2022/09/25 00:08:08;;;;;;;4.80;2.13;;;9.20;99.90;;;;;;4896680;28;20036;-76
2022/09/25 00:10:42;;;;;;;5.32;3.03;;;9.20;99.90;;;;;;4906781;28;20036;-77
2022/09/25 00:13:08;;;;;;;8.13;4.80;;;9.10;99.90;;;;;;4888438;28;20044;-77
2022/09/25 00:15:34;;;;;;;12.60;4.65;;;9.70;99.90;;;;;;4888572;29;20048;-76
2022/09/25 00:17:59;;;;;;;13.80;7.38;;;9.20;99.90;;;;;;4904905;29;20059;-77
2022/09/25 00:20:25;;;;;;;16.60;8.05;;;9.30;99.90;;;;;;4908973;28;20105;-77
2022/09/25 00:22:51;;;;;;;17.85;8.65;;;9.80;99.90;;;;;;4908357;29;20330;-77
2022/09/25 00:25:17;;;;;;;15.27;7.63;;;9.20;99.90;;;;;;4908223;28;20093;-76
2022/09/25 00:27:44;;;;;;;19.83;8.88;;;9.10;99.90;;;;;;4906424;29;20434;-77
2022/09/25 00:30:12;;;;;;;18.17;9.07;;;9.10;99.90;;;;;;4908774;28;20457;-76
2022/09/25 00:32:39;;;;;;;12.50;7.15;;;9.10;99.90;;;;;;4908985;28;20044;-76
2022/09/25 00:35:05;;;;;;;13.02;6.28;;;9.00;99.90;;;;;;4892779;28;20675;-78
2022/09/25 00:37:35;;;;;;;9.23;4.90;;;9.00;99.90;;;;;;4907786;28;20044;-77
2022/09/25 00:40:02;;;;;;;8.73;4.43;;;10.30;99.90;;;;;;4908927;29;20063;-77
2022/09/25 00:42:28;;;;;;;8.05;3.15;;;9.00;99.90;;;;;;4907349;29;20051;-77
2022/09/25 00:45:02;;;;;;;8.25;3.58;;;9.00;99.90;;;;;;4893340;28;20412;-76
2022/09/25 00:47:46;;;;;;;8.10;3.22;;;8.90;99.90;;;;;;4892012;28;20079;-77
2022/09/25 00:50:41;;;;;;;6.82;2.40;;;10.40;99.90;;;;;;4905163;29;20549;-78
2022/09/25 00:53:13;;;;;;;5.63;2.10;;;8.90;99.90;;;;;;4908164;28;20075;-78
2022/09/25 00:55:42;;;;;;;4.18;1.88;;;10.20;99.90;;;;;;4906567;28;20044;-77
2022/09/25 00:58:10;;;;;;;6.80;2.60;;;8.90;99.90;;;;;;4892537;29;20040;-78
2022/09/25 01:00:36;;;;;;;5.13;2.00;;;8.90;99.90;;;;;;4908227;29;20060;-74
2022/09/25 01:03:03;;;;;;;6.32;1.70;;;10.00;99.90;;;;;;4906992;28;20067;-74
2022/09/25 01:05:35;;;;;;;8.70;2.15;;;8.90;99.90;;;;;;4907509;29;20037;-77
2022/09/25 01:08:04;;;;;;;4.80;1.52;;;8.90;99.90;;;;;;4907275;29;20106;-74
2022/09/25 01:10:31;;;;;;;4.32;1.48;;;10.10;99.90;;;;;;4907089;28;20115;-75
2022/09/25 01:12:59;;;;;;;3.13;1.20;;;8.90;99.90;;;;;;4908956;29;20473;-74
2022/09/25 01:15:50;;;;;;;3.03;1.13;;;10.50;99.90;;;;;;4909446;29;20044;-75
2022/09/25 01:18:37;;;;;;;2.50;1.30;;;9.00;99.90;;;;;;4923280;29;20097;-75
2022/09/25 01:21:14;;;;;;;5.55;1.67;;;8.90;99.90;;;;;;4907904;29;20064;-77
2022/09/25 01:24:14;;;;;;;5.78;2.08;;;9.00;99.90;;;;;;4890527;28;20071;-80
2022/09/25 01:27:05;;;;;;;2.30;0.95;;;8.90;99.90;;;;;;4909273;28;20043;-78
2022/09/25 01:29:48;;;;;;;3.10;1.63;;;8.90;99.90;;;;;;4906782;29;20115;-77
2022/09/25 01:32:27;;;;;;;4.38;1.00;;;9.10;99.90;;;;;;4906744;28;20040;-76
2022/09/25 01:35:17;;;;;;;3.35;0.98;;;8.90;99.90;;;;;;4906425;28;20154;-76
2022/09/25 01:38:14;;;;;;;4.90;1.63;;;8.90;99.90;;;;;;4907837;29;20047;-77
2022/09/25 01:41:07;;;;;;;3.28;1.25;;;8.90;99.90;;;;;;4891330;28;20040;-77
2022/09/25 01:43:56;;;;;;;4.07;1.52;;;8.70;99.90;;;;;;4889935;28;20051;-77
2022/09/25 01:46:26;;;;;;;3.35;0.85;;;10.80;99.90;;;;;;4890872;28;20059;-77
2022/09/25 01:49:00;;;;;;;2.40;1.00;;;9.10;99.90;;;;;;4907422;28;20139;-80
2022/09/25 01:51:36;;;;;;;7.20;1.30;;;8.80;99.90;;;;;;4890885;29;20492;-77
2022/09/25 01:54:08;;;;;;;4.03;0.80;;;8.80;99.90;;;;;;4890649;29;20044;-77
2022/09/25 01:56:41;;;;;;;1.75;1.00;;;8.80;99.90;;;;;;4909159;28;20123;-76
2022/09/25 01:59:14;;;;;;;5.10;0.90;;;7.40;99.90;;;;;;4904134;29;20048;-76
2022/09/25 02:01:42;;;;;;;2.33;1.10;;;9.50;99.90;;;;;;4891094;28;20040;-77
2022/09/25 02:04:14;;;;;;;5.15;1.52;;;8.70;99.90;;;;;;4891647;28;20400;-77
2022/09/25 02:06:43;;;;;;;5.60;1.08;;;8.80;99.90;;;;;;4906926;28;20052;-76
2022/09/25 02:09:16;;;;;;;3.15;1.13;;;8.80;99.90;;;;;;4906185;28;20044;-77
2022/09/25 02:11:47;;;;;;;2.60;1.33;;;8.80;99.90;;;;;;4906439;28;20052;-78
2022/09/25 02:14:21;;;;;;;9.75;1.77;;;8.80;99.90;;;;;;4905170;29;20044;-77
2022/09/25 02:16:52;;;;;;;2.38;1.23;;;8.80;99.90;;;;;;4906683;29;20507;-78
2022/09/25 02:22:09;;;;;;;;;;;8.70;99.90;;;;;;4906460;29;20048;-77
2022/09/25 02:24:40;;;;;;;2.33;1.30;;;8.80;99.90;;;;;;4890784;28;19955;-77
2022/09/25 02:27:05;;;;;;;5.82;1.23;;;9.70;99.90;;;;;;4906388;28;20059;-78
2022/09/25 02:29:31;;;;;;;5.68;2.67;;;8.90;99.90;;;;;;4899332;29;20048;-78
2022/09/25 02:32:03;;;;;;;5.13;1.90;;;8.70;99.90;;;;;;4907617;29;20040;-79
2022/09/25 02:34:31;;;;;;;5.50;2.42;;;10.00;99.90;;;;;;4907274;28;20032;-79
2022/09/25 02:36:57;;;;;;;6.82;3.20;;;8.70;99.90;;;;;;4907045;28;20127;-77
2022/09/25 02:39:26;;;;;;;8.75;2.50;;;10.00;99.90;;;;;;4909235;28;20203;-75
2022/09/25 02:42:29;;;;;;;5.38;2.75;;;8.70;99.90;;;;;;4906344;28;20766;-76
2022/09/25 02:45:04;;;;;;;3.15;2.72;;;8.70;99.90;;;;;;4907423;29;20131;-78
2022/09/25 02:47:51;;;;;;;7.35;3.05;;;8.60;99.90;;;;;;4891854;29;20079;-75
2022/09/25 02:50:44;;;;;;;5.57;2.58;;;8.60;99.90;;;;;;4890690;28;20135;-74
2022/09/25 02:53:28;;;;;;;5.22;1.90;;;10.40;99.90;;;;;;4889142;28;20055;-74
2022/09/25 02:56:03;;;;;;;2.73;1.67;;;8.50;99.90;;;;;;4907013;29;20052;-75
2022/09/25 02:58:54;;;;;;;5.65;2.20;;;8.50;99.90;;;;;;4919529;28;20118;-74
2022/09/25 03:01:23;;;;;;;3.55;1.40;;;8.50;99.90;;;;;;4904034;28;20424;-74
2022/09/25 03:03:52;;;;;;;4.00;1.60;;;8.50;99.90;;;;;;4904735;28;20079;-74
2022/09/25 03:06:18;;;;;;;4.10;1.40;;;8.90;99.90;;;;;;4908413;28;20178;-74
2022/09/25 03:08:48;;;;;;;3.72;1.23;;;8.50;99.90;;;;;;4905731;29;20044;-74
2022/09/25 03:11:16;;;;;;;7.68;1.85;;;8.50;99.90;;;;;;4905408;29;20518;-74
2022/09/25 03:13:43;;;;;;;3.80;1.83;;;10.30;99.90;;;;;;4890167;28;20059;-74
2022/09/25 03:16:19;;;;;;;4.88;1.67;;;8.40;99.90;;;;;;4887414;29;20037;-74
2022/09/25 03:18:46;;;;;;;3.45;1.40;;;8.40;99.90;;;;;;4903018;28;20086;-75
2022/09/25 03:21:12;;;;;;;2.85;1.65;;;8.40;99.90;;;;;;4906170;28;20075;-76
2022/09/25 03:23:38;;;;;;;6.38;2.28;;;8.40;99.90;;;;;;4902313;28;20044;-75
2022/09/25 03:26:04;;;;;;;2.92;1.48;;;8.40;99.90;;;;;;4908091;28;20040;-74
2022/09/25 03:28:30;;;;;;;6.25;1.90;;;8.40;99.90;;;;;;4906054;28;20492;-74
2022/09/25 03:31:02;;;;;;;6.40;1.70;;;8.30;99.90;;;;;;4905357;28;20096;-76
2022/09/25 03:33:32;;;;;;;4.28;2.22;;;8.40;99.90;;;;;;4906150;28;20048;-76
2022/09/25 03:36:12;;;;;;;3.05;2.10;;;8.40;99.90;;;;;;4906348;28;20122;-76
2022/09/25 03:38:40;;;;;;;5.93;2.35;;;8.40;99.90;;;;;;4906778;29;20052;-77
2022/09/25 03:41:07;;;;;;;7.07;2.60;;;9.40;99.90;;;;;;4907449;28;20094;-78
2022/09/25 03:43:37;;;;;;;11.18;2.20;;;10.00;99.90;;;;;;4904313;28;20123;-77
2022/09/25 03:46:05;;;;;;;5.88;2.25;;;8.50;99.90;;;;;;4905925;28;20044;-77
2022/09/25 03:48:31;;;;;;;3.60;1.60;;;8.50;99.90;;;;;;4889069;29;20052;-79
2022/09/25 03:50:57;;;;;;;1.98;1.42;;;10.20;99.90;;;;;;4890798;28;20048;-80
2022/09/25 03:53:24;;;;;;;2.97;1.67;;;8.50;99.90;;;;;;4908772;29;20484;-79
2022/09/25 03:55:50;;;;;;;7.85;2.30;;;8.40;99.90;;;;;;4909887;29;20110;-78
2022/09/25 03:58:16;;;;;;;5.35;2.17;;;10.40;99.90;;;;;;4911036;28;20482;-80
2022/09/25 04:00:44;;;;;;;2.85;1.63;;;8.40;99.90;;;;;;4909377;29;20090;-79
2022/09/25 04:03:10;;;;;;;7.22;1.85;;;9.40;99.90;;;;;;4910735;28;20435;-77
2022/09/25 04:05:36;;;;;;;2.80;1.70;;;9.60;99.90;;;;;;4894139;28;20036;-77
2022/09/25 04:08:02;;;;;;;4.90;1.98;;;8.40;99.90;;;;;;4909700;29;20106;-78
2022/09/25 04:10:28;;;;;;;5.65;1.83;;;7.90;99.90;;;;;;4910658;28;20055;-77
2022/09/25 04:12:54;;;;;;;4.63;1.50;;;8.30;99.90;;;;;;4893561;29;20050;-78
2022/09/25 04:15:23;;;;;;;4.88;1.77;;;8.30;99.90;;;;;;4911202;28;20065;-77
2022/09/25 04:17:51;;;;;;;5.63;1.70;;;10.10;99.90;;;;;;4911213;29;20446;-78
2022/09/25 04:20:17;;;;;;;3.05;1.27;;;8.20;99.90;;;;;;4892872;28;20521;-77
2022/09/25 04:22:43;;;;;;;2.85;1.35;;;8.20;99.90;;;;;;4909419;28;20338;-81
2022/09/25 04:25:09;;;;;;;3.78;1.13;;;9.80;99.90;;;;;;4925286;28;20132;-81
2022/09/25 04:27:38;;;;;;;4.20;1.50;;;9.70;99.90;;;;;;4924253;28;20048;-77
2022/09/25 04:30:04;;;;;;;3.75;1.30;;;8.10;99.90;;;;;;4909667;28;20048;-79
2022/09/25 04:35:28;;;;;;;2.42;1.10;;;8.10;99.90;;;;;;4927865;28;20041;-76
2022/09/25 04:37:54;;;;;;;3.17;0.90;;;9.20;99.90;;;;;;4909924;29;20063;-77
2022/09/25 04:40:19;;;;;;;3.10;1.10;;;9.20;99.90;;;;;;4909369;29;20040;-75
2022/09/25 04:42:45;;;;;;;5.00;1.27;;;9.80;99.90;;;;;;4913718;28;20416;-77
2022/09/25 04:45:10;;;;;;;4.75;1.02;;;8.00;99.90;;;;;;4910649;29;20082;-76
2022/09/25 04:47:36;;;;;;;5.38;1.75;;;9.20;99.90;;;;;;4893531;28;20102;-75
2022/09/25 04:50:02;;;;;;;1.65;1.25;;;8.90;99.90;;;;;;4911410;28;20080;-76
2022/09/25 04:52:30;;;;;;;3.45;1.50;;;8.10;99.90;;;;;;4911212;28;20435;-76
2022/09/25 04:54:56;;;;;;;4.65;1.77;;;9.80;99.90;;;;;;4892979;29;20098;-77
2022/09/25 04:57:25;;;;;;;6.47;1.98;;;8.40;99.90;;;;;;4909441;29;20470;-76
2022/09/25 04:59:50;;;;;;;4.43;1.52;;;9.60;99.90;;;;;;4909653;28;20143;-75
2022/09/25 05:02:16;;;;;;;5.47;1.38;;;9.90;99.90;;;;;;4930334;28;20115;-76
2022/09/25 05:04:41;;;;;;;3.42;1.60;;;8.50;99.90;;;;;;4892456;28;20052;-76
2022/09/25 05:07:07;;;;;;;6.72;2.13;;;9.30;99.90;;;;;;4910710;28;20059;-76
2022/09/25 05:09:33;;;;;;;3.25;2.15;;;7.90;99.90;;;;;;4909995;29;20039;-76
2022/09/25 05:12:02;;;;;;;3.47;1.83;;;7.90;99.90;;;;;;4909245;29;20054;-77
2022/09/25 05:14:29;;;;;;;4.05;1.50;;;7.90;99.90;;;;;;4910042;28;20048;-77
2022/09/25 05:16:55;;;;;;;3.13;1.20;;;7.90;99.90;;;;;;4908457;29;20052;-77
2022/09/25 05:19:21;;;;;;;3.42;1.67;;;7.90;99.90;;;;;;4909239;28;20056;-76
2022/09/25 05:21:47;;;;;;;3.95;1.55;;;9.80;99.90;;;;;;4919619;28;20074;-76
2022/09/25 05:24:13;;;;;;;7.20;2.17;;;9.60;99.90;;;;;;4915753;28;20488;-77
2022/09/25 05:26:40;;;;;;;7.65;2.70;;;7.70;99.90;;;;;;4910054;28;20130;-79
2022/09/25 05:29:09;;;;;;;2.47;1.88;;;9.50;99.90;;;;;;4897143;28;20114;-80
2022/09/25 05:31:37;;;;;;;5.70;2.28;;;8.30;99.90;;;;;;4908981;28;20120;-76
2022/09/25 05:34:02;;;;;;;5.93;2.10;;;7.80;99.90;;;;;;4893498;29;20466;-78
2022/09/25 05:36:28;;;;;;;4.15;2.15;;;9.50;99.90;;;;;;4908286;28;20131;-76
2022/09/25 05:38:55;;;;;;;6.53;2.33;;;7.80;99.90;;;;;;4914432;28;20076;-78
2022/09/25 05:41:20;;;;;;;5.70;1.80;;;8.50;99.90;;;;;;4894381;29;20052;-77
2022/09/25 05:43:46;;;;;;;6.18;2.58;;;9.70;99.90;;;;;;4909052;28;20044;-76
2022/09/25 05:46:12;;;;;;;5.03;1.80;;;7.90;99.90;;;;;;4908389;28;20540;-76
2022/09/25 05:48:38;;;;;;;5.85;1.80;;;7.90;99.90;;;;;;4910279;28;20070;-76
2022/09/25 05:51:07;;;;;;;3.55;2.13;;;8.80;99.90;;;;;;4908696;28;20087;-79
2022/09/25 05:53:33;;;;;;;7.38;1.65;;;7.80;99.90;;;;;;4893980;28;20056;-76
2022/09/25 05:56:01;;;;;;;5.28;2.28;;;8.80;99.90;;;;;;4908409;28;20051;-79
2022/09/25 05:58:28;;;;;;;4.43;1.75;;;7.80;99.90;;;;;;4908222;29;20063;-77
2022/09/25 06:00:54;;;;;;;7.78;2.15;;;9.20;99.90;;;;;;4908051;29;20111;-76
2022/09/25 06:03:20;;;;;;;7.47;2.08;;;9.20;99.90;;;;;;4906922;28;20394;-76
2022/09/25 06:05:47;;;;;;;5.88;1.60;;;7.80;99.90;;;;;;4905730;28;20451;-77
2022/09/25 06:08:14;;;;;;;2.45;1.52;;;7.70;99.90;;;;;;4907770;28;20052;-77
2022/09/25 06:10:40;;;;;;;9.23;2.20;;;7.70;99.90;;;;;;4907449;29;20044;-77
2022/09/25 06:13:07;;;;;;;4.60;1.77;;;7.80;99.90;;;;;;4891542;28;20050;-80
2022/09/25 06:15:38;;;;;;;2.55;1.55;;;7.80;99.90;;;;;;4891922;28;20126;-80
2022/09/25 06:18:11;;;;;;;4.50;1.48;;;7.80;99.90;;;;;;4907924;28;20110;-77
2022/09/25 06:20:36;;;;;;;3.80;1.75;;;7.80;99.90;;;;;;4889404;28;20062;-78
2022/09/25 06:23:02;;;;;;;2.55;1.35;;;7.80;99.90;;;;;;4907732;28;20411;-76
2022/09/25 06:25:31;;;;;;;2.53;1.55;;;7.80;99.90;;;;;;4910059;28;20044;-76
2022/09/25 06:27:59;;;;;;;3.22;1.60;;;9.00;99.90;;;;;;4906246;29;20048;-76
2022/09/25 06:30:32;;;;;;;3.38;1.52;;;9.50;99.90;;;;;;4892017;28;20123;-77
2022/09/25 06:32:59;;;;;;;3.72;1.45;;;7.80;99.90;;;;;;4903065;28;20040;-76
2022/09/25 06:35:26;;;;;;;5.07;1.88;;;9.70;99.90;;;;;;4910932;28;20044;-77
2022/09/25 06:37:55;;;;;;;10.35;2.25;;;8.90;99.90;;;;;;4891231;29;20087;-78
2022/09/25 06:40:21;;;;;;;5.32;1.92;;;7.90;99.90;;;;;;4906106;28;20044;-76
2022/09/25 06:42:49;;;;;;;5.47;1.67;;;8.30;99.90;;;;;;4906656;28;20062;-81
2022/09/25 06:45:15;;;;;;;10.75;2.20;;;8.00;99.90;;;;;;4890819;29;20487;-77
2022/09/25 06:47:42;;;;;;;5.43;1.85;;;10.20;99.90;;;;;;4888084;28;20047;-76
2022/09/25 06:50:08;;;;;;;3.33;1.25;;;9.70;99.90;;;;;;4905457;28;20055;-77
2022/09/25 06:52:41;;;;;;;2.63;1.17;;;8.30;99.90;;;;;;4888628;28;20044;-77
2022/09/25 06:55:07;;;;;;;6.03;1.60;;;10.20;99.90;;;;;;4890893;28;20044;-76
2022/09/25 06:57:35;;;;;;;2.00;1.23;;;8.40;99.90;;;;;;4905676;29;20178;-79
2022/09/25 07:00:03;;;;;;;2.55;1.25;;;10.20;99.90;;;;;;4891469;29;20036;-76
2022/09/25 07:05:12;;;;;;;4.38;1.88;;;8.60;99.90;;;;;;4907487;28;20048;-77
2022/09/25 07:07:38;;;;;;;6.55;2.33;;;8.60;99.90;;;;;;4907582;29;20135;-77
2022/09/25 07:10:04;;;;;;;8.05;1.92;;;8.60;99.90;;;;;;4908174;28;20469;-79
2022/09/25 07:12:33;;;;;;;7.30;2.00;;;8.80;99.90;;;;;;4891748;28;20641;-77
2022/09/25 07:14:58;;;;;;;11.02;2.20;;;9.40;99.90;;;;;;4225656;28;10000584;-79
2022/09/25 07:17:24;;;;;;;5.82;2.00;;;9.00;99.90;;;;;;4903812;29;20048;-78
2022/09/25 07:19:50;;;;;;;6.25;1.95;;;9.10;99.90;;;;;;4903562;29;20119;-77
2022/09/25 07:22:16;;;;;;;6.97;1.70;;;9.20;99.90;;;;;;4917467;28;20139;-76
2022/09/25 07:24:42;;;;;;;7.47;2.08;;;10.40;99.90;;;;;;4889696;28;20036;-75
2022/09/25 07:27:07;;;;;;;6.50;1.83;;;10.40;99.90;;;;;;4886173;29;20066;-75
2022/09/25 07:29:34;;;;;;;6.05;1.67;;;10.70;99.90;;;;;;4908142;28;20136;-74
2022/09/25 07:32:01;;;;;;;5.68;1.80;;;9.60;99.90;;;;;;4889159;29;20052;-74
2022/09/25 07:34:39;;;;;;;6.65;1.90;;;9.70;99.90;;;;;;4919682;28;20128;-75
2022/09/25 07:37:04;;;;;;;11.95;1.48;;;11.20;99.90;;;;;;4903356;28;20066;-75
2022/09/25 07:39:30;;;;;;;7.82;1.65;;;10.20;99.90;;;;;;4905168;28;20058;-76
2022/09/25 07:41:57;;;;;;;7.07;1.50;;;10.20;99.90;;;;;;4903214;28;20411;-81
2022/09/25 07:44:23;;;;;;;7.75;1.70;;;10.20;99.90;;;;;;4905339;28;20051;-75
2022/09/25 07:46:49;;;;;;;5.40;1.35;;;11.70;99.90;;;;;;4906403;28;20058;-74
2022/09/25 07:49:14;;;;;;;9.43;1.50;;;10.40;99.90;;;;;;4904221;28;20044;-73
2022/09/25 07:51:40;;;;;;;7.03;0.93;;;10.40;99.90;;;;;;4888317;28;20114;-78
2022/09/25 07:54:06;;;;;;;6.45;1.27;;;9.90;99.90;;;;;;4904237;28;20400;-73
2022/09/25 07:56:33;;;;;;;6.97;0.82;;;10.50;99.90;;;;;;4905285;28;20056;-73
2022/09/25 07:58:59;;;;;;;6.00;1.40;;;10.50;99.90;;;;;;4903976;29;20055;-75
2022/09/25 08:01:24;;;;;;;10.93;2.15;;;10.40;99.90;;;;;;4888510;29;20407;-75
2022/09/25 08:03:53;;;;;;;4.28;1.67;;;10.50;99.90;;;;;;4904995;28;20051;-76
2022/09/25 08:06:19;;;;;;;11.45;1.75;;;10.50;99.90;;;;;;4906789;28;20062;-74
2022/09/25 08:08:44;;;;;;;8.15;0.95;;;10.50;99.90;;;;;;4905541;28;20543;-74
2022/09/25 08:11:16;;;;;;;4.18;1.10;;;10.60;99.90;;;;;;4904385;28;20040;-75
2022/09/25 08:13:42;;;;;;;7.43;1.20;;;10.70;99.90;;;;;;4905208;28;20048;-74
2022/09/25 08:16:16;;;;;;;8.98;3.58;;;10.70;99.90;;;;;;4888856;28;20451;-75
2022/09/25 08:18:44;;;;;;;14.27;4.03;;;10.70;99.90;;;;;;4885876;28;20062;-74
2022/09/25 08:21:13;;;;;;;7.07;1.38;;;10.80;99.90;;;;;;4902411;28;20668;-73
2022/09/25 08:23:40;;;;;;;11.00;2.28;;;10.80;99.90;;;;;;4905957;28;20041;-75
2022/09/25 08:26:06;;;;;;;10.82;0.93;;;11.60;99.90;;;;;;4902928;29;20060;-74
2022/09/25 08:28:32;;;;;;;6.63;0.88;;;10.80;99.90;;;;;;4904123;28;20048;-74
2022/09/25 08:30:59;;;;;;;3.17;0.88;;;12.00;99.90;;;;;;4889445;29;20055;-74
2022/09/25 08:33:25;;;;;;;7.70;1.08;;;10.80;99.90;;;;;;4904644;29;20044;-74
2022/09/25 08:35:58;;;;;;;7.90;0.90;;;12.20;99.90;;;;;;4906470;29;20079;-76
2022/09/25 08:38:26;;;;;;;7.45;2.22;;;10.90;99.90;;;;;;4903846;29;20044;-80
2022/09/25 08:41:17;;;;;;;5.65;1.30;;;10.80;99.90;;;;;;4891455;28;20750;-82
2022/09/25 08:44:04;;;;;;;7.28;1.58;;;10.90;99.90;;;;;;4908765;29;20610;-77
2022/09/25 08:49:35;;;;;;;4.55;0.98;;;10.90;99.90;;;;;;4908989;28;20044;-78
2022/09/25 08:52:07;;;;;;;6.25;1.60;;;11.00;99.90;;;;;;4905699;28;20048;-78
2022/09/25 08:54:34;;;;;;;3.28;1.38;;;11.00;99.90;;;;;;4893531;29;20040;-78
2022/09/25 08:57:26;;;;;;;2.85;1.20;;;11.00;99.90;;;;;;4909198;28;20732;-78
2022/09/25 08:59:56;;;;;;;7.03;1.25;;;11.10;99.90;;;;;;4988299;28;20052;-79
2022/09/25 09:02:35;;;;;;;3.67;1.00;;;11.10;99.90;;;;;;4920884;28;20055;-78
2022/09/25 09:05:01;;;;;;;8.82;1.23;;;11.10;99.90;;;;;;4909434;29;20130;-78
2022/09/25 09:07:41;;;;;;;5.68;1.95;;;11.70;99.90;;;;;;4936572;28;20066;-78
2022/09/25 09:10:32;;;;;;;4.47;0.90;;;11.20;99.90;;;;;;4910090;29;20040;-79
2022/09/25 09:13:18;;;;;;;5.65;0.98;;;11.30;99.90;;;;;;4893287;28;20072;-79
2022/09/25 09:16:05;;;;;;;5.20;0.95;;;11.40;99.90;;;;;;4933781;28;20437;-79
2022/09/25 09:18:36;;;;;;;3.17;0.82;;;11.40;99.90;;;;;;4892509;29;20110;-78
2022/09/25 09:21:27;;;;;;;4.72;0.93;;;11.70;99.90;;;;;;4907065;29;20147;-78
2022/09/25 09:24:26;;;;;;;4.80;0.60;;;11.50;99.90;;;;;;4905299;29;20303;-79
2022/09/25 09:27:03;;;;;;;6.07;0.70;;;11.60;99.90;;;;;;4905410;28;20055;-80
2022/09/25 09:29:35;;;;;;;3.65;0.77;;;11.60;99.90;;;;;;4908248;28;20048;-79
2022/09/25 09:32:10;;;;;;;3.78;0.80;;;13.00;99.90;;;;;;4909981;28;20040;-79
2022/09/25 09:35:25;;;;;;;1.83;0.57;;;11.60;99.90;;;;;;4905842;29;20129;-78
2022/09/25 09:38:34;;;;;;;6.43;0.70;;;11.70;99.90;;;;;;4905611;28;20606;-78
2022/09/25 09:41:17;;;;;;;4.32;0.90;;;11.80;99.90;;;;;;4889328;29;20052;-78
2022/09/25 09:44:07;;;;;;;4.03;1.55;;;11.80;99.90;;;;;;4905032;28;20044;-78
2022/09/25 09:46:47;;;;;;;7.53;1.35;;;11.90;99.90;;;;;;4901711;28;20186;-78
2022/09/25 09:49:28;;;;;;;7.32;1.20;;;12.20;99.90;;;;;;4909090;29;20088;-79
2022/09/25 09:52:19;;;;;;;4.70;0.60;;;12.10;99.90;;;;;;4888776;28;20106;-78
2022/09/25 09:54:59;;;;;;;5.88;0.40;;;12.20;99.90;;;;;;4905894;28;20047;-79
2022/09/25 09:57:53;;;;;;;2.50;0.40;;;12.20;99.90;;;;;;4908844;29;20060;-79
2022/09/25 10:00:21;;;;;;;5.28;0.95;;;12.30;99.90;;;;;;4906978;28;20397;-78
2022/09/25 10:02:55;;;;;;;4.28;1.00;;;12.30;99.90;;;;;;4908816;29;20056;-79
2022/09/25 10:05:21;;;;;;;;;;;12.30;99.90;;;;;;4909625;28;20091;-79
2022/09/25 10:07:48;;;;;;;5.78;0.70;;;12.30;99.90;;;;;;4909242;29;20341;-79
2022/09/25 10:10:16;;;;;;;7.00;1.02;;;12.30;99.90;;;;;;4908473;28;20555;-79
2022/09/25 10:12:53;;;;;;;7.82;1.63;;;12.30;99.90;;;;;;4910164;28;20083;-79
2022/09/25 10:15:22;;;;;;;14.18;3.05;;;12.40;99.90;;;;;;4893438;29;20040;-80
2022/09/25 10:17:48;;;;;;;3.25;0.85;;;12.30;99.90;;;;;;4909775;29;20444;-79
2022/09/25 10:20:20;;;;;;;5.68;1.15;;;12.30;99.90;;;;;;4908652;28;20083;-79
2022/09/25 10:22:49;;;;;;;6.05;1.02;;;12.70;99.90;;;;;;4924805;28;20052;-79
2022/09/25 10:25:37;;;;;;;4.25;0.50;;;12.40;99.90;;;;;;4908912;28;20456;-79
2022/09/25 10:28:30;;;;;;;2.55;0.98;;;12.40;99.90;;;;;;4892846;28;20044;-79
2022/09/25 10:30:57;;;;;;;3.17;0.50;;;12.40;99.90;;;;;;4887879;28;20126;-77
2022/09/25 10:33:29;;;;;;;1.67;0.43;;;12.40;99.90;;;;;;4910695;29;20047;-78
2022/09/25 10:35:55;;;;;;;3.85;0.68;;;12.50;99.90;;;;;;4908921;29;20407;-78
2022/09/25 10:38:47;;;;;;;5.68;1.15;;;12.50;99.90;;;;;;4907735;28;20036;-77
2022/09/25 10:41:16;;;;;;;3.78;0.38;;;12.60;99.90;;;;;;4907101;28;20056;-79
2022/09/25 10:43:58;;;;;;;5.22;0.70;;;12.70;99.90;;;;;;4908870;29;20468;-79
2022/09/25 10:52:16;;;;;;;0.68;0.45;;;12.90;99.90;;;;;;4908079;29;20056;-79
2022/09/25 10:54:41;;;;;;;0.90;0.38;;;13.00;99.90;;;;;;4908093;28;20133;-79
2022/09/25 10:57:33;;;;;;;2.72;0.25;;;13.00;99.90;;;;;;4892178;29;20140;-79
2022/09/25 11:00:00;;;;;;;0.32;0.10;;;13.10;99.90;;;;;;4907250;28;20047;-79
2022/09/25 11:02:38;;;;;;;1.20;0.32;;;13.10;99.90;;;;;;4907705;29;20044;-79
2022/09/25 11:05:14;;;;;;;4.70;0.47;;;13.20;99.90;;;;;;4919501;28;20083;-78
2022/09/25 11:07:52;;;;;;;2.15;0.22;;;13.20;99.90;;;;;;4904585;28;20045;-78
2022/09/25 11:10:19;;;;;;;0.73;0.13;;;13.30;99.90;;;;;;4908927;29;20044;-79
2022/09/25 11:12:45;;;;;;;1.20;0.28;;;13.30;99.90;;;;;;4907916;28;20063;-79
2022/09/25 11:15:18;;;;;;;6.40;3.92;;;13.40;99.90;;;;;;4907830;28;20495;-79
2022/09/25 11:17:48;;;;;;;18.13;8.45;;;13.30;99.90;;;;;;4919633;28;20048;-79
2022/09/25 11:20:28;;;;;;;7.60;4.35;;;13.70;99.90;;;;;;4907264;29;20059;-79
2022/09/25 11:23:18;;;;;;;5.43;0.30;;;13.30;99.90;;;;;;4902869;28;20036;-79
2022/09/25 11:25:56;;;;;;;1.85;0.17;;;13.40;99.90;;;;;;4885859;29;20075;-79
2022/09/25 11:28:30;;;;;;;2.28;0.30;;;13.60;99.90;;;;;;4906888;29;20048;-78
2022/09/25 11:31:02;;;;;;;0.65;0.10;;;13.60;99.90;;;;;;4908133;28;20056;-78
2022/09/25 11:34:10;;;;;;;1.58;0.40;;;13.80;99.90;;;;;;4907355;28;20059;-79
2022/09/25 11:37:03;;;;;;;4.45;0.20;;;14.00;99.90;;;;;;4907892;29;20120;-79
2022/09/25 11:43:04;;;;;;;3.03;0.88;;;14.40;99.90;;;;;;4906415;28;20048;-79
2022/09/25 11:45:37;;;;;;;1.70;0.32;;;14.50;99.90;;;;;;4891193;28;20052;-79
2022/09/25 11:48:22;;;;;;;4.33;0.20;;;14.60;99.90;;;;;;4906724;28;20091;-79
2022/09/25 11:51:02;;;;;;;3.55;0.17;;;15.50;99.90;;;;;;4910731;28;20040;-79
2022/09/25 11:53:40;;;;;;;2.75;0.30;;;14.80;99.90;;;;;;4891392;29;20468;-79
2022/09/25 11:56:17;;;;;;;2.03;0.40;;;15.00;99.90;;;;;;4907049;28;20048;-79
2022/09/25 11:58:56;;;;;;;4.03;0.45;;;15.20;99.90;;;;;;4884856;29;20439;-80
2022/09/25 12:01:45;;;;;;;2.90;0.32;;;15.30;99.90;;;;;;4906300;28;20131;-80
2022/09/25 12:04:49;;;;;;;1.00;0.30;;;15.40;99.90;;;;;;4909015;28;20094;-79
2022/09/25 12:07:38;;;;;;;2.60;0.28;;;15.40;99.90;;;;;;4906769;29;20416;-79
2022/09/25 12:10:26;;;;;;;5.57;1.75;;;15.70;99.90;;;;;;4901842;29;20143;-80
2022/09/25 12:13:12;;;;;;;3.88;1.25;;;15.60;99.90;;;;;;4904028;29;21006;-79
2022/09/25 12:15:49;;;;;;;2.67;0.20;;;15.70;99.90;;;;;;4911213;29;20032;-80
2022/09/25 12:18:36;;;;;;;2.63;0.28;;;15.70;99.90;;;;;;4910996;28;20563;-79
2022/09/25 12:21:32;;;;;;;2.78;0.30;;;15.60;99.90;;;;;;4903997;28;20110;-79
2022/09/25 12:24:07;;;;;;;1.33;0.28;;;15.40;99.90;;;;;;4904194;29;20065;-79
2022/09/25 12:26:40;;;;;;;1.98;0.28;;;15.50;99.90;;;;;;4894941;29;20047;-78
2022/09/25 12:29:16;;;;;;;1.33;0.20;;;15.60;99.90;;;;;;4910475;28;20059;-79
2022/09/25 12:32:08;;;;;;;1.92;0.50;;;15.70;99.90;;;;;;4911326;29;20094;-78
2022/09/25 12:34:42;;;;;;;1.38;0.20;;;15.50;99.90;;;;;;4908832;28;20474;-79
2022/09/25 12:37:19;;;;;;;2.10;0.22;;;15.30;99.90;;;;;;4893502;29;20048;-78
2022/09/25 12:40:01;;;;;;;7.38;4.35;;;15.20;99.90;;;;;;4895113;28;20566;-78
2022/09/25 12:42:54;;;;;;;2.00;0.47;;;15.30;99.90;;;;;;4910317;28;20056;-79
2022/09/25 12:45:20;;;;;;;4.35;0.47;;;15.30;99.90;;;;;;4894569;29;20044;-78
2022/09/25 12:48:11;;;;;;;4.40;0.50;;;15.50;99.90;;;;;;4910350;29;20056;-78
2022/09/25 12:51:00;;;;;;;1.83;0.38;;;15.60;99.90;;;;;;4909096;29;20348;-78
2022/09/25 12:53:42;;;;;;;3.92;0.45;;;15.60;99.90;;;;;;4923360;28;20127;-75
2022/09/25 12:56:20;;;;;;;3.85;0.20;;;15.50;99.90;;;;;;4910176;29;20044;-75
2022/09/25 12:58:50;;;;;;;1.63;0.20;;;15.40;99.90;;;;;;4909702;28;20126;-78
2022/09/25 13:01:44;;;;;;;7.22;1.17;;;15.30;99.90;;;;;;4909339;29;20373;-78
2022/09/25 13:04:33;;;;;;;5.18;0.30;;;15.40;99.90;;;;;;4884773;29;20139;-74
2022/09/25 13:07:10;;;;;;;4.45;0.40;;;15.50;99.90;;;;;;4910877;29;20052;-78
2022/09/25 13:09:47;;;;;;;2.30;0.22;;;15.60;99.90;;;;;;4892261;29;20044;-78
2022/09/25 13:12:32;;;;;;;8.65;0.50;;;15.90;99.90;;;;;;4924429;28;20143;-78
2022/09/25 13:15:00;;;;;;;;;;;15.70;99.90;;;;;;4892140;28;20400;-79
2022/09/25 13:17:26;;;;;;;5.95;0.55;;;15.90;99.90;;;;;;4907461;28;19935;-76
2022/09/25 13:19:53;;;;;;;3.70;1.10;;;15.90;99.90;;;;;;4906952;29;20431;-78
2022/09/25 13:22:24;;;;;;;4.10;0.20;;;16.30;99.90;;;;;;4893771;28;20044;-79
2022/09/25 13:25:11;;;;;;;1.45;0.10;;;15.50;99.90;;;;;;4909496;29;20044;-76
2022/09/25 13:27:41;;;;;;;3.60;0.30;;;15.60;99.90;;;;;;4907177;29;20033;-79
2022/09/25 13:30:27;;;;;;;2.50;0.30;;;15.40;99.90;;;;;;4891813;28;20464;-79
2022/09/25 13:33:01;;;;;;;3.00;0.30;;;16.10;99.90;;;;;;4909953;29;20047;-80
2022/09/25 13:35:30;;;;;;;3.92;0.35;;;15.40;99.90;;;;;;4910991;28;20040;-77
2022/09/25 13:40:41;;;;;;;3.13;0.35;;;15.10;99.90;;;;;;4909632;29;20056;-79
2022/09/25 13:41:12;;;;;;;3.60;0.47;;;15.00;99.90;;;;;;4908170;28;20056;-79
2022/09/25 13:43:38;;;;;;;1.52;0.10;;;15.80;99.90;;;;;;4909083;29;20044;-78